Time;durP1;ratioP1;P1;durP2;ratioP2;P2;SDS_P1;SDS_P2;PMS_P1;PMS_P2;Temp;Humidity;BMP_temperature;BMP_pressure;BME280_temperature;BME280_humidity;BME280_pressure;Samples;Min_cycle;Max_cycle;Signal;HPM_P1;HPM_P2
2021/03/20 00:01:48;;;;;;;35.08;21.82;;;;;;;2.46;78.35;98910.75;1813080;79;21163;-62
2021/03/20 00:04:17;;;;;;;35.52;18.82;;;;;;;2.42;78.65;98907.22;1813081;78;21542;-62
2021/03/20 00:06:50;;;;;;;36.05;19.05;;;;;;;2.36;78.81;98909.08;1812966;78;21181;-62
2021/03/20 00:09:23;;;;;;;37.15;20.27;;;;;;;2.34;79.05;98908.55;1812833;79;21369;-62
2021/03/20 00:11:52;;;;;;;31.87;19.32;;;;;;;2.43;79.24;98910.63;1812948;78;21127;-61
2021/03/20 00:14:23;;;;;;;34.65;20.20;;;;;;;2.45;79.00;98908.61;1812842;78;21131;-61
2021/03/20 00:16:52;;;;;;;33.13;18.62;;;;;;;2.36;78.98;98905.26;1812781;78;21131;-62
2021/03/20 00:19:22;;;;;;;30.68;19.02;;;;;;;2.31;79.08;98906.73;1812946;78;21147;-62
2021/03/20 00:21:50;;;;;;;32.50;19.52;;;;;;;2.28;79.26;98908.30;1812835;78;21107;-62
2021/03/20 00:24:18;;;;;;;37.95;20.25;;;;;;;2.28;79.42;98905.34;1812813;78;21119;-61
2021/03/20 00:26:46;;;;;;;33.98;18.98;;;;;;;2.30;79.31;98912.65;1813027;78;21100;-62
2021/03/20 00:29:13;;;;;;;35.78;18.95;;;;;;;2.28;79.15;98913.39;1812840;79;21142;-60
2021/03/20 00:31:41;;;;;;;37.05;20.75;;;;;;;2.31;78.17;98917.33;1812830;79;21123;-60
2021/03/20 00:34:09;;;;;;;35.75;20.68;;;;;;;2.33;78.18;98909.36;1813024;79;21127;-61
2021/03/20 00:36:37;;;;;;;35.88;20.75;;;;;;;2.33;78.52;98911.50;1812767;79;21127;-63
2021/03/20 00:39:08;;;;;;;39.88;23.47;;;;;;;2.34;78.02;98908.55;1812835;78;21676;-61
2021/03/20 00:41:38;;;;;;;40.05;23.75;;;;;;;2.29;77.36;98907.10;1813125;78;21523;-62
2021/03/20 00:44:06;;;;;;;41.13;23.73;;;;;;;2.23;77.20;98906.82;1812820;79;21135;-61
2021/03/20 00:46:34;;;;;;;42.10;24.47;;;;;;;2.17;77.13;98908.70;1812819;78;21107;-62
2021/03/20 00:49:02;;;;;;;42.78;24.50;;;;;;;2.10;77.25;98905.42;1812967;79;21519;-60
2021/03/20 00:51:30;;;;;;;45.05;24.37;;;;;;;2.10;77.20;98900.73;1812807;78;21142;-63
2021/03/20 00:53:58;;;;;;;49.30;26.62;;;;;;;2.08;76.97;98899.80;1812972;78;21551;-62
2021/03/20 00:56:26;;;;;;;46.45;23.95;;;;;;;1.99;77.00;98901.55;1801502;79;21159;-63
2021/03/20 00:58:54;;;;;;;40.30;23.12;;;;;;;1.96;76.89;98906.52;1812999;79;21538;-62
2021/03/20 01:01:22;;;;;;;46.15;26.02;;;;;;;1.99;76.83;98900.28;1813006;79;21229;-62
2021/03/20 01:03:51;;;;;;;46.73;21.68;;;;;;;2.03;76.75;98900.00;1813033;79;21123;-61
2021/03/20 01:06:26;;;;;;;40.23;23.45;;;;;;;2.06;76.70;98899.75;1812906;78;21103;-61
2021/03/20 01:08:57;;;;;;;43.13;20.82;;;;;;;2.09;76.25;98892.24;1812922;79;21272;-61
2021/03/20 01:11:28;;;;;;;43.68;24.00;;;;;;;2.08;75.86;98895.98;1813006;78;21130;-62
2021/03/20 01:13:58;;;;;;;41.28;22.55;;;;;;;2.06;75.84;98901.40;1812929;79;21218;-60
2021/03/20 01:16:26;;;;;;;36.35;19.32;;;;;;;2.03;75.39;98894.50;1812778;78;21154;-61
2021/03/20 01:18:55;;;;;;;41.37;22.00;;;;;;;2.05;74.91;98897.98;1812826;78;21131;-63
2021/03/20 01:21:24;;;;;;;35.55;18.27;;;;;;;2.03;74.94;98901.27;1812834;79;21139;-60
2021/03/20 01:23:52;;;;;;;38.88;20.60;;;;;;;2.02;74.37;98899.55;1812818;79;21139;-60
2021/03/20 01:26:21;;;;;;;42.15;20.60;;;;;;;2.03;74.35;98894.50;1813043;79;21542;-61
2021/03/20 01:28:49;;;;;;;44.80;21.85;;;;;;;2.04;74.30;98896.27;1812818;78;21278;-60
2021/03/20 01:31:17;;;;;;;41.00;20.85;;;;;;;2.05;74.51;98899.67;1812993;79;21667;-61
2021/03/20 01:33:45;;;;;;;45.20;24.55;;;;;;;2.06;74.56;98899.75;1812981;79;21667;-60
2021/03/20 01:36:13;;;;;;;44.70;23.38;;;;;;;2.06;74.68;98903.95;1812794;79;21156;-60
2021/03/20 01:38:41;;;;;;;40.85;22.00;;;;;;;2.07;74.87;98901.89;1815647;78;21336;-60
2021/03/20 01:41:17;;;;;;;34.90;18.95;;;;;;;2.05;74.82;98906.03;1827349;78;21553;-61
2021/03/20 01:43:46;;;;;;;36.53;19.12;;;;;;;2.04;74.64;98902.63;1827367;78;21111;-62
2021/03/20 01:46:45;;;;;;;36.05;19.00;;;;;;;1.97;74.59;98908.66;1827308;78;21147;-61
2021/03/20 01:49:35;;;;;;;32.25;18.57;;;;;;;1.89;75.10;98910.86;1827525;78;21277;-61
2021/03/20 01:52:23;;;;;;;31.02;17.52;;;;;;;1.89;75.03;98915.95;1827322;78;21150;-61
2021/03/20 01:55:04;;;;;;;25.32;14.47;;;;;;;1.79;75.00;98921.02;1827295;78;21122;-59
2021/03/20 01:57:49;;;;;;;32.30;17.42;;;;;;;1.71;74.98;98927.45;1827123;78;21660;-60
2021/03/20 02:00:22;;;;;;;35.00;17.65;;;;;;;1.66;75.48;98920.88;1827069;78;21098;-61
2021/03/20 02:02:51;;;;;;;33.85;20.40;;;;;;;1.63;75.95;98924.56;1827392;78;21115;-61
2021/03/20 02:05:24;;;;;;;35.85;18.65;;;;;;;1.60;76.47;98922.25;1827545;78;21513;-62
2021/03/20 02:07:53;;;;;;;32.55;19.30;;;;;;;1.58;76.37;98923.84;1827389;78;21114;-61
2021/03/20 02:10:24;;;;;;;37.25;19.57;;;;;;;1.55;76.87;98922.04;1827298;78;21095;-61
2021/03/20 02:12:55;;;;;;;34.63;17.98;;;;;;;1.50;76.90;98926.94;1827288;77;21273;-61
2021/03/20 02:15:29;;;;;;;;;;;;;;;1.46;76.99;98925.05;1830056;77;21688;-61
2021/03/20 02:18:03;;;;;;;34.27;17.80;;;;;;;1.41;76.22;98927.77;1827549;78;20385;-60
2021/03/20 02:21:01;;;;;;;36.70;20.72;;;;;;;1.35;76.74;98933.86;1827503;77;21158;-62
2021/03/20 02:24:02;;;;;;;36.70;19.02;;;;;;;1.36;77.15;98934.31;1827305;78;21208;-61
2021/03/20 02:26:55;;;;;;;34.63;18.40;;;;;;;1.41;77.01;98939.22;1827651;77;21545;-61
2021/03/20 02:29:48;;;;;;;31.37;16.12;;;;;;;1.43;77.10;98937.62;1826456;78;21252;-61
2021/03/20 02:32:55;;;;;;;31.77;18.05;;;;;;;1.46;76.98;98944.11;1827314;78;21304;-61
2021/03/20 02:35:43;;;;;;;31.73;17.82;;;;;;;1.52;76.96;98940.57;1778254;81;21221;-60
2021/03/20 02:38:51;;;;;;;29.40;16.32;;;;;;;1.62;76.94;98943.14;1875460;75;22769;-62
2021/03/20 02:41:33;;;;;;;27.40;13.55;;;;;;;1.55;77.08;98941.52;1848876;77;21168;-60
2021/03/20 02:44:21;;;;;;;23.32;12.33;;;;;;;1.57;76.73;98941.20;1831216;77;21133;-60
2021/03/20 02:47:01;;;;;;;24.72;13.90;;;;;;;1.57;76.84;98945.02;1841666;77;21114;-59
2021/03/20 02:49:46;;;;;;;25.02;12.90;;;;;;;1.54;77.24;98944.88;1837428;77;21279;-60
2021/03/20 02:52:36;;;;;;;24.27;12.82;;;;;;;1.49;77.18;98940.84;1838701;77;21136;-60
2021/03/20 02:55:12;;;;;;;21.30;11.48;;;;;;;1.45;77.33;98950.39;1842722;77;21283;-60
2021/03/20 02:57:45;;;;;;;18.35;9.88;;;;;;;1.41;77.66;98950.66;1776171;80;21142;-59
2021/03/20 03:00:34;;;;;;;21.23;11.53;;;;;;;1.37;77.72;98953.84;1780092;79;21150;-60
2021/03/20 03:03:06;;;;;;;16.23;9.38;;;;;;;1.31;78.16;98954.84;1778541;79;21153;-60
2021/03/20 03:05:48;;;;;;;18.37;10.38;;;;;;;1.21;78.36;98955.20;1776712;80;21731;-62
2021/03/20 03:08:21;;;;;;;13.70;7.70;;;;;;;1.16;78.98;98952.84;1822110;78;21349;-60
2021/03/20 03:11:05;;;;;;;16.52;8.63;;;;;;;1.10;78.80;98953.83;1793543;80;21180;-61
2021/03/20 03:13:43;;;;;;;14.07;8.35;;;;;;;1.05;79.28;98951.93;1782983;80;21291;-61
2021/03/20 03:16:19;;;;;;;16.50;9.53;;;;;;;0.98;79.27;98956.23;1785648;80;21148;-61
2021/03/20 03:18:56;;;;;;;18.87;9.95;;;;;;;0.93;79.91;98956.81;1778272;79;21340;-61
2021/03/20 03:21:28;;;;;;;17.90;8.65;;;;;;;0.91;80.51;98960.54;1793970;80;21544;-60
2021/03/20 03:23:57;;;;;;;21.77;11.63;;;;;;;0.88;80.88;98957.86;1806327;78;21719;-61
2021/03/20 03:26:43;;;;;;;19.00;10.28;;;;;;;0.87;81.36;98966.29;1779621;80;21169;-61
2021/03/20 03:29:17;;;;;;;18.90;10.58;;;;;;;0.91;81.90;98959.67;1784827;80;21584;-60
2021/03/20 03:32:06;;;;;;;17.67;10.35;;;;;;;0.88;82.00;98964.20;1812699;78;21165;-61
2021/03/20 03:34:42;;;;;;;16.17;8.70;;;;;;;0.87;82.65;98958.66;1794594;80;21320;-61
2021/03/20 03:37:28;;;;;;;20.30;11.22;;;;;;;0.91;82.96;98963.08;1791476;80;21284;-60
2021/03/20 03:40:00;;;;;;;19.37;9.90;;;;;;;0.95;83.16;98962.85;1775689;79;21291;-61
2021/03/20 03:42:30;;;;;;;21.05;12.58;;;;;;;0.98;83.36;98959.18;1804955;78;21109;-60
2021/03/20 03:44:57;;;;;;;18.40;10.65;;;;;;;0.93;83.45;98960.62;1787040;79;21299;-59
2021/03/20 03:47:29;;;;;;;19.35;11.03;;;;;;;0.88;84.06;98960.80;1788689;79;21300;-61
2021/03/20 03:50:00;;;;;;;17.57;10.90;;;;;;;0.85;84.17;98957.72;1776782;80;21173;-61
2021/03/20 03:52:28;;;;;;;23.75;11.57;;;;;;;0.89;84.35;98959.99;1803547;78;21131;-60
2021/03/20 03:54:56;;;;;;;19.42;10.43;;;;;;;0.91;84.47;98966.03;1794609;80;21134;-60
2021/03/20 03:57:47;;;;;;;19.85;10.45;;;;;;;0.95;84.61;98962.45;1774478;80;21357;-63
2021/03/20 04:00:59;;;;;;;19.98;11.10;;;;;;;1.07;84.90;98956.70;1869744;76;22198;-60
2021/03/20 04:03:39;;;;;;;22.82;11.65;;;;;;;1.07;84.71;98966.86;1827682;77;21273;-61
2021/03/20 04:06:37;;;;;;;19.70;10.93;;;;;;;1.15;85.29;98965.09;1818947;78;21138;-60
2021/03/20 04:09:35;;;;;;;22.02;11.22;;;;;;;1.28;85.45;98959.78;1827846;78;21204;-60
2021/03/20 04:12:08;;;;;;;19.98;12.70;;;;;;;1.42;85.67;98967.64;1824921;78;21137;-61
2021/03/20 04:14:49;;;;;;;26.30;14.80;;;;;;;1.56;85.43;98971.25;1827545;77;21169;-62
2021/03/20 04:17:51;;;;;;;29.60;15.45;;;;;;;1.64;85.46;98963.58;1827870;78;21126;-61
2021/03/20 04:20:25;;;;;;;25.85;15.72;;;;;;;1.67;85.02;98971.34;1827559;78;21272;-61
2021/03/20 04:23:01;;;;;;;25.52;13.75;;;;;;;1.69;84.97;98976.11;1827553;77;21129;-62
2021/03/20 04:26:05;;;;;;;25.30;13.95;;;;;;;1.66;84.44;98986.14;1827818;77;21118;-61
2021/03/20 04:28:50;;;;;;;24.30;15.30;;;;;;;1.54;84.28;98981.34;1827537;78;21130;-61
2021/03/20 04:31:35;;;;;;;24.87;14.65;;;;;;;1.36;84.13;98981.35;1827898;77;21268;-62
2021/03/20 04:34:20;;;;;;;22.27;13.55;;;;;;;1.22;83.94;98983.25;1827860;78;21125;-62
2021/03/20 04:36:56;;;;;;;20.80;11.85;;;;;;;1.05;83.85;98975.20;1826943;77;21118;-61
2021/03/20 04:39:27;;;;;;;22.48;11.90;;;;;;;0.89;83.68;98979.95;1827492;78;21146;-61
2021/03/20 04:41:57;;;;;;;19.25;12.23;;;;;;;0.75;83.57;98988.53;1825182;78;21280;-60
2021/03/20 04:44:25;;;;;;;17.70;10.88;;;;;;;0.67;83.98;98985.61;1827566;78;21289;-62
2021/03/20 04:46:55;;;;;;;18.75;10.88;;;;;;;0.69;83.19;98985.67;1827682;77;21335;-63
2021/03/20 04:49:47;;;;;;;20.50;11.28;;;;;;;0.72;82.67;98992.20;1827498;78;21134;-62
2021/03/20 04:52:29;;;;;;;21.45;10.63;;;;;;;0.76;82.16;98996.62;1827728;78;21134;-60
2021/03/20 04:55:00;;;;;;;16.95;10.82;;;;;;;0.77;81.96;99000.92;1827710;78;21134;-62
2021/03/20 04:57:54;;;;;;;21.02;10.95;;;;;;;0.88;81.64;98992.56;1827708;77;21300;-59
2021/03/20 05:00:47;;;;;;;20.80;10.32;;;;;;;0.94;81.00;98997.93;1827810;78;21188;-61
2021/03/20 05:03:26;;;;;;;22.30;9.53;;;;;;;0.98;80.72;99005.78;1827962;78;21288;-61
2021/03/20 05:06:05;;;;;;;20.60;11.18;;;;;;;0.93;79.97;99000.88;1814949;77;21603;-59
2021/03/20 05:08:41;;;;;;;18.92;11.45;;;;;;;0.84;80.00;99006.38;1789512;78;21576;-59
2021/03/20 05:11:26;;;;;;;21.27;11.65;;;;;;;0.84;79.89;99013.11;1807556;78;21123;-60
2021/03/20 05:14:17;;;;;;;19.25;10.98;;;;;;;0.82;79.82;99011.78;1812421;78;21134;-59
2021/03/20 05:16:52;;;;;;;19.32;10.35;;;;;;;0.83;79.63;99013.91;1807328;78;21290;-59
2021/03/20 05:19:24;;;;;;;19.82;10.28;;;;;;;0.82;79.35;99014.72;1809204;78;21538;-60
2021/03/20 05:21:54;;;;;;;15.75;9.98;;;;;;;0.80;79.14;99016.31;1810848;78;21288;-59
2021/03/20 05:24:30;;;;;;;16.80;10.13;;;;;;;0.86;79.33;99022.95;1812581;78;21070;-59
2021/03/20 05:27:00;;;;;;;20.32;10.93;;;;;;;1.03;78.68;99023.40;1812289;78;21266;-60
2021/03/20 05:29:29;;;;;;;17.23;11.50;;;;;;;1.27;78.35;99031.38;1823445;78;21146;-60
2021/03/20 05:31:58;;;;;;;20.52;12.65;;;;;;;1.51;77.72;99025.31;1826528;78;21205;-60
2021/03/20 05:34:37;;;;;;;30.17;19.70;;;;;;;1.80;76.81;99029.61;1827317;77;21350;-62
2021/03/20 05:37:08;;;;;;;27.00;17.65;;;;;;;2.09;76.13;99026.28;1826810;77;21157;-62
2021/03/20 05:39:36;;;;;;;27.30;15.85;;;;;;;2.43;75.00;99034.15;1827557;77;21692;-60
2021/03/20 05:42:42;;;;;;;19.52;11.78;;;;;;;2.74;73.00;99037.62;1827180;78;21181;-63
2021/03/20 05:45:22;;;;;;;19.67;11.55;;;;;;;3.05;72.27;99041.06;1818582;78;21252;-60
2021/03/20 05:48:19;;;;;;;19.07;10.63;;;;;;;3.63;70.44;99043.84;1820562;78;21155;-61
2021/03/20 05:51:02;;;;;;;16.85;9.50;;;;;;;3.94;68.97;99045.91;1827379;78;21281;-61
2021/03/20 05:53:47;;;;;;;14.65;8.45;;;;;;;4.32;67.62;99046.48;1827094;78;21099;-63
2021/03/20 05:56:26;;;;;;;13.75;8.45;;;;;;;4.64;66.29;99041.69;1812236;78;21162;-63
2021/03/20 05:59:05;;;;;;;15.08;8.68;;;;;;;4.89;64.66;99045.98;1796474;77;21155;-62
2021/03/20 06:02:15;;;;;;;13.35;7.97;;;;;;;4.93;63.50;99045.25;1751125;79;22393;-62
2021/03/20 06:04:50;;;;;;;14.65;9.05;;;;;;;5.08;62.57;99052.59;1793991;78;21581;-61
2021/03/20 06:07:47;;;;;;;14.98;8.48;;;;;;;4.88;62.52;99054.45;1798554;79;21142;-61
2021/03/20 06:10:38;;;;;;;12.37;7.78;;;;;;;5.07;62.42;99055.98;1798422;79;21175;-61
2021/03/20 06:13:32;;;;;;;14.70;8.53;;;;;;;5.52;61.06;99058.30;1798128;78;21156;-60
2021/03/20 06:16:29;;;;;;;14.83;9.50;;;;;;;6.09;59.66;99049.47;1794612;79;21247;-62
2021/03/20 06:19:15;;;;;;;15.63;8.43;;;;;;;6.47;57.59;99061.27;1799094;79;21263;-63
2021/03/20 06:22:26;;;;;;;18.95;9.03;;;;;;;6.43;56.82;99061.98;1795491;79;21282;-63
2021/03/20 06:25:09;;;;;;;16.32;9.80;;;;;;;6.16;56.76;99064.21;1789329;79;21144;-63
2021/03/20 06:27:44;;;;;;;18.75;9.65;;;;;;;5.95;57.44;99072.50;1780973;80;21145;-62
2021/03/20 06:30:48;;;;;;;15.28;9.03;;;;;;;5.82;57.45;99072.08;1781000;80;21290;-62
2021/03/20 06:33:43;;;;;;;13.35;8.68;;;;;;;5.66;57.99;99069.87;1850695;77;22216;-62
2021/03/20 06:36:20;;;;;;;18.55;10.78;;;;;;;5.69;57.75;99075.08;1756074;82;21118;-61
2021/03/20 06:39:11;;;;;;;19.80;12.43;;;;;;;5.84;57.71;99080.69;1756576;81;21170;-61
2021/03/20 06:41:52;;;;;;;16.57;9.40;;;;;;;6.13;58.03;99083.34;1760289;81;21284;-62
2021/03/20 06:44:26;;;;;;;15.65;9.45;;;;;;;6.72;56.37;99083.35;1756426;81;21316;-62
2021/03/20 06:46:54;;;;;;;13.08;8.95;;;;;;;7.39;55.09;99081.70;1759791;81;21178;-63
2021/03/20 06:49:39;;;;;;;15.88;8.63;;;;;;;7.77;54.02;99084.36;1732046;82;21569;-61
2021/03/20 06:52:12;;;;;;;19.80;9.38;;;;;;;8.22;52.67;99086.27;1735940;81;21162;-61
2021/03/20 06:54:40;;;;;;;15.45;9.38;;;;;;;8.68;50.96;99085.99;1706899;82;21139;-61
2021/03/20 06:57:11;;;;;;;14.50;8.33;;;;;;;8.59;50.37;99084.50;1741035;81;21573;-63
2021/03/20 06:59:39;;;;;;;15.23;8.43;;;;;;;8.50;49.36;99093.30;1758580;81;21131;-62
2021/03/20 07:02:22;;;;;;;13.38;7.05;;;;;;;8.50;49.36;99093.30;1729808;83;21336;-62
2021/03/20 07:05:11;;;;;;;12.55;7.72;;;;;;;8.66;49.28;99099.23;1756509;81;21190;-60
2021/03/20 07:07:59;;;;;;;14.00;7.15;;;;;;;8.58;49.14;99097.78;1750335;81;21122;-62
2021/03/20 07:10:50;;;;;;;12.25;7.95;;;;;;;8.69;49.62;99096.72;1736080;81;21158;-62
2021/03/20 07:13:23;;;;;;;13.70;8.10;;;;;;;9.33;48.74;99099.23;1756236;82;21311;-59
2021/03/20 07:16:14;;;;;;;11.20;6.47;;;;;;;9.85;47.06;99105.72;1756537;81;21131;-62
2021/03/20 07:18:53;;;;;;;14.33;7.60;;;;;;;9.81;46.37;99114.23;1756528;81;21170;-61
2021/03/20 07:21:37;;;;;;;12.98;6.92;;;;;;;9.45;46.58;99115.34;1756546;82;21522;-62
2021/03/20 07:24:19;;;;;;;11.90;7.35;;;;;;;9.27;46.78;99115.88;1756568;81;21181;-62
2021/03/20 07:27:01;;;;;;;13.43;9.00;;;;;;;8.84;46.83;99121.90;1756558;81;21182;-62
2021/03/20 07:29:48;;;;;;;13.43;8.50;;;;;;;8.42;47.53;99118.46;1739839;82;21201;-63
2021/03/20 07:32:21;;;;;;;15.88;8.55;;;;;;;7.91;48.37;99124.11;1761110;80;21176;-63
2021/03/20 07:34:50;;;;;;;12.63;7.92;;;;;;;7.48;49.37;99132.03;1762736;81;21269;-62
2021/03/20 07:37:28;;;;;;;16.60;8.58;;;;;;;7.21;50.12;99133.86;1756337;81;21287;-62
2021/03/20 07:40:01;;;;;;;13.10;7.60;;;;;;;7.22;50.35;99131.31;1766916;80;21173;-62
2021/03/20 07:42:38;;;;;;;13.78;8.13;;;;;;;7.22;50.30;99136.87;1756337;81;21163;-64
2021/03/20 07:45:21;;;;;;;12.80;7.72;;;;;;;6.81;50.74;99136.59;1759329;81;21320;-62
2021/03/20 07:48:01;;;;;;;19.95;9.95;;;;;;;6.54;51.47;99141.38;1755862;81;21107;-62
2021/03/20 07:50:48;;;;;;;15.40;9.23;;;;;;;5.95;52.89;99140.37;1752440;81;21132;-61
2021/03/20 07:53:19;;;;;;;19.07;9.55;;;;;;;5.65;53.65;99142.39;1751773;81;21351;-62
2021/03/20 07:56:08;;;;;;;15.63;8.23;;;;;;;5.46;54.42;99143.86;1755101;81;21158;-63
2021/03/20 07:59:04;;;;;;;12.37;7.87;;;;;;;5.39;54.47;99143.66;1698729;83;21369;-64
2021/03/20 08:01:36;;;;;;;11.93;7.00;;;;;;;5.48;54.27;99147.34;1753402;81;21149;-63
2021/03/20 08:04:09;;;;;;;14.05;7.30;;;;;;;5.80;53.98;99142.00;1748001;81;21141;-62
2021/03/20 08:06:45;;;;;;;15.60;7.62;;;;;;;6.18;53.11;99144.56;1740644;82;21566;-62
2021/03/20 08:09:25;;;;;;;12.25;7.03;;;;;;;6.41;52.60;99141.81;1720029;82;21172;-62
2021/03/20 08:12:04;;;;;;;10.55;6.42;;;;;;;6.89;51.24;99146.23;1740844;82;21192;-64
2021/03/20 08:14:50;;;;;;;11.18;6.05;;;;;;;7.40;50.04;99152.75;1740768;81;21198;-65
2021/03/20 08:17:21;;;;;;;8.83;4.97;;;;;;;7.76;48.91;99151.58;1752459;81;21197;-61
2021/03/20 08:19:49;;;;;;;9.00;5.10;;;;;;;7.80;47.59;99152.09;1750264;81;21138;-69
2021/03/20 08:22:32;;;;;;;14.58;6.03;;;;;;;7.89;46.92;99157.89;1751589;80;21186;-64
2021/03/20 08:25:33;;;;;;;8.58;4.53;;;;;;;8.05;47.15;99152.27;1754564;80;21253;-65
2021/03/20 08:28:10;;;;;;;10.30;4.75;;;;;;;8.61;46.42;99144.58;1745972;81;21186;-65
2021/03/20 08:31:00;;;;;;;9.98;4.40;;;;;;;9.41;43.91;99157.75;1673306;85;21366;-65
2021/03/20 08:33:53;;;;;;;8.33;3.85;;;;;;;9.96;42.15;99160.02;1715797;83;21170;-65
2021/03/20 08:36:45;;;;;;;7.45;3.72;;;;;;;10.27;41.43;99163.08;1701631;83;21194;-65
2021/03/20 08:40:02;;;;;;;8.65;4.03;;;;;;;10.65;39.16;99156.79;1847077;76;22243;-63
2021/03/20 08:42:52;;;;;;;8.68;3.65;;;;;;;10.70;39.43;99158.58;1823372;78;21186;-64
2021/03/20 08:45:51;;;;;;;7.47;4.08;;;;;;;10.86;38.41;99161.80;1819395;78;21298;-65
2021/03/20 08:48:30;;;;;;;7.00;3.33;;;;;;;10.79;38.41;99161.30;1817575;78;21185;-66
2021/03/20 08:51:32;;;;;;;7.70;3.90;;;;;;;10.93;39.14;99162.32;1747925;78;21196;-66
2021/03/20 08:54:36;;;;;;;;;;;;;;;11.49;38.16;99165.12;1820829;78;21225;-66
2021/03/20 08:57:35;;;;;;;6.65;3.22;;;;;;;11.64;36.11;99163.13;1823708;78;20308;-66
2021/03/20 09:00:24;;;;;;;6.30;3.08;;;;;;;11.06;35.92;99153.88;1817737;78;21263;-65
2021/03/20 09:02:55;;;;;;;6.40;3.25;;;;;;;10.55;36.94;99160.09;1817209;78;21313;-59
2021/03/20 09:05:39;;;;;;;5.15;3.27;;;;;;;10.33;37.74;99161.52;1828458;78;21086;-61
2021/03/20 09:08:33;;;;;;;5.50;2.83;;;;;;;10.45;36.34;99162.09;1825224;78;21097;-63
2021/03/20 09:11:07;;;;;;;5.12;2.87;;;;;;;10.18;36.70;99154.37;1814812;78;21158;-59
2021/03/20 09:13:49;;;;;;;6.05;2.90;;;;;;;9.86;37.14;99153.84;1827433;78;21758;-54
2021/03/20 09:16:34;;;;;;;6.37;3.67;;;;;;;9.55;37.31;99152.45;1827712;78;21297;-60
2021/03/20 09:19:07;;;;;;;5.92;2.83;;;;;;;9.11;38.04;99156.34;1827684;78;21295;-58
2021/03/20 09:21:40;;;;;;;6.80;3.35;;;;;;;8.71;39.14;99158.52;1827694;78;21635;-60
2021/03/20 09:24:14;;;;;;;5.37;3.37;;;;;;;8.33;39.51;99165.78;1827991;78;21671;-59
2021/03/20 09:26:47;;;;;;;9.43;4.05;;;;;;;8.15;40.13;99163.66;1822915;78;21188;-57
2021/03/20 09:29:23;;;;;;;6.47;3.65;;;;;;;8.06;40.78;99156.99;1821574;78;21293;-58
2021/03/20 09:32:00;;;;;;;6.30;3.47;;;;;;;8.09;41.03;99155.80;1825169;78;21131;-58
2021/03/20 09:34:37;;;;;;;6.58;3.20;;;;;;;8.27;40.26;99154.08;1810511;78;21362;-61
2021/03/20 09:37:20;;;;;;;5.87;3.37;;;;;;;8.03;40.90;99167.20;1812646;78;21273;-58
2021/03/20 09:39:52;;;;;;;5.95;2.92;;;;;;;8.01;40.76;99164.62;1820431;78;21133;-58
2021/03/20 09:42:34;;;;;;;5.67;3.05;;;;;;;7.97;40.85;99160.22;1819953;78;21165;-59
2021/03/20 09:45:20;;;;;;;7.37;3.45;;;;;;;7.96;41.01;99166.20;1824777;78;21165;-58
2021/03/20 09:47:52;;;;;;;7.42;4.10;;;;;;;8.04;40.65;99157.40;1812676;78;21291;-59
2021/03/20 09:50:26;;;;;;;7.87;4.58;;;;;;;7.83;39.78;99157.72;1797382;78;21145;-59
2021/03/20 09:53:12;;;;;;;6.45;3.77;;;;;;;7.44;40.35;99156.30;1820945;78;21109;-61
2021/03/20 09:55:50;;;;;;;14.53;4.10;;;;;;;7.08;40.67;99163.03;1813812;78;21102;-60
2021/03/20 09:58:23;;;;;;;9.28;3.77;;;;;;;6.95;41.83;99161.81;1810412;78;21304;-58
2021/03/20 10:00:57;;;;;;;6.40;4.08;;;;;;;6.81;41.79;99155.41;1811590;78;21319;-59
2021/03/20 10:03:52;;;;;;;8.90;3.62;;;;;;;6.74;42.16;99156.94;1816800;78;21196;-58
2021/03/20 10:06:30;;;;;;;6.17;3.45;;;;;;;6.83;42.20;99151.62;1811519;78;21157;-59
2021/03/20 10:09:10;;;;;;;6.22;3.85;;;;;;;6.90;41.15;99155.69;1808553;78;21164;-61
2021/03/20 10:11:47;;;;;;;5.72;3.02;;;;;;;6.98;41.52;99145.64;1820370;78;21137;-60
2021/03/20 10:14:35;;;;;;;5.50;3.20;;;;;;;7.11;41.29;99153.27;1821083;78;21204;-62
2021/03/20 10:17:18;;;;;;;6.78;3.40;;;;;;;7.12;41.46;99153.70;1825514;78;21694;-61
2021/03/20 10:20:06;;;;;;;6.83;4.15;;;;;;;7.00;41.46;99151.69;1819039;78;21181;-63
2021/03/20 10:22:37;;;;;;;6.42;3.95;;;;;;;6.98;42.11;99156.32;1771431;78;21153;-63
2021/03/20 10:25:10;;;;;;;6.20;3.50;;;;;;;6.90;42.32;99149.69;1783868;80;21260;-58
2021/03/20 10:27:49;;;;;;;6.85;3.50;;;;;;;7.00;42.30;99151.69;1760840;80;21718;-60
2021/03/20 10:30:29;;;;;;;7.20;3.60;;;;;;;7.20;41.85;99143.65;1861171;76;38252;-58
2021/03/20 10:33:17;;;;;;;6.37;3.55;;;;;;;7.02;41.08;99151.71;1826393;76;21288;-60
2021/03/20 10:35:45;;;;;;;7.03;3.35;;;;;;;6.85;41.48;99156.38;1819587;77;21094;-60
2021/03/20 10:38:28;;;;;;;6.40;3.35;;;;;;;6.95;41.44;99150.69;1841512;77;21253;-63
2021/03/20 10:41:16;;;;;;;6.40;3.62;;;;;;;7.10;41.82;99148.97;1841424;77;21125;-59
2021/03/20 10:43:59;;;;;;;7.12;4.00;;;;;;;7.23;41.42;99152.74;1843509;77;21165;-57
2021/03/20 10:46:33;;;;;;;6.17;3.67;;;;;;;7.21;41.34;99142.84;1770524;80;21548;-58
2021/03/20 10:49:20;;;;;;;7.28;3.52;;;;;;;6.89;41.87;99140.23;1845327;76;21125;-60
2021/03/20 10:51:51;;;;;;;6.10;3.58;;;;;;;6.60;43.18;99138.98;1852268;76;21244;-61
2021/03/20 10:54:45;;;;;;;6.75;3.70;;;;;;;6.32;43.48;99154.37;1844471;77;21706;-57
2021/03/20 10:57:18;;;;;;;8.78;3.83;;;;;;;6.16;44.52;99150.05;1846753;76;21248;-57
2021/03/20 10:59:49;;;;;;;7.70;3.67;;;;;;;6.03;44.96;99151.35;1852837;77;21572;-59
2021/03/20 11:02:24;;;;;;;;;;;;;;;5.95;46.41;99153.19;1856284;77;21162;-60
2021/03/20 11:05:15;;;;;;;7.33;4.12;;;;;;;5.73;48.14;99153.75;1859468;76;20114;-59
2021/03/20 11:07:57;;;;;;;6.37;3.62;;;;;;;5.51;50.09;99150.00;1821051;78;21123;-59
2021/03/20 11:10:39;;;;;;;5.87;3.15;;;;;;;5.29;49.67;99151.84;1820771;79;21166;-60
2021/03/20 11:13:26;;;;;;;5.90;3.55;;;;;;;5.22;48.65;99152.02;1811067;79;21232;-59
2021/03/20 11:16:08;;;;;;;7.30;3.52;;;;;;;5.27;48.49;99147.07;1825597;78;21133;-58
2021/03/20 11:18:45;;;;;;;7.75;3.72;;;;;;;5.35;47.21;99148.20;1834200;76;21241;-60
2021/03/20 11:21:38;;;;;;;6.50;4.00;;;;;;;5.53;48.08;99154.77;1841360;77;21146;-59
2021/03/20 11:24:32;;;;;;;9.78;4.33;;;;;;;5.66;48.25;99147.54;1830302;77;21268;-60
2021/03/20 11:27:29;;;;;;;10.60;4.47;;;;;;;5.83;47.75;99148.11;1830571;77;21146;-60
2021/03/20 11:30:03;;;;;;;6.47;3.70;;;;;;;5.93;47.65;99144.55;1848505;77;21283;-60
2021/03/20 11:32:39;;;;;;;7.53;3.95;;;;;;;5.99;47.77;99149.92;1844592;77;21154;-61
2021/03/20 11:35:34;;;;;;;7.97;4.15;;;;;;;6.09;47.28;99144.27;1841047;77;21682;-61
2021/03/20 11:38:04;;;;;;;5.95;3.60;;;;;;;6.19;46.65;99145.43;1840024;77;21114;-61
2021/03/20 11:40:45;;;;;;;6.95;3.72;;;;;;;6.36;46.59;99148.49;1845196;77;21263;-60
2021/03/20 11:43:26;;;;;;;9.88;4.20;;;;;;;6.62;46.19;99143.75;1798232;79;21170;-61
2021/03/20 11:46:05;;;;;;;6.22;3.62;;;;;;;6.93;45.40;99133.09;1799047;79;21115;-62
2021/03/20 11:49:00;;;;;;;7.45;4.40;;;;;;;7.51;44.54;99137.66;1832559;76;28493;-65
2021/03/20 11:51:45;;;;;;;15.08;4.65;;;;;;;7.98;43.39;99131.11;1820515;78;21132;-61
2021/03/20 11:54:37;;;;;;;8.28;3.83;;;;;;;8.19;42.69;99135.02;1807218;78;21134;-63
2021/03/20 11:57:22;;;;;;;9.65;4.22;;;;;;;8.36;42.22;99128.56;1827346;77;21155;-60
2021/03/20 11:59:51;;;;;;;10.32;4.95;;;;;;;8.59;41.67;99134.66;1824000;77;21135;-62
2021/03/20 12:02:30;;;;;;;11.70;3.98;;;;;;;8.77;41.31;99131.19;1827333;78;21123;-64
2021/03/20 12:05:17;;;;;;;9.15;3.85;;;;;;;8.64;41.29;99135.62;1827620;78;21153;-59
2021/03/20 12:07:46;;;;;;;7.08;4.12;;;;;;;8.35;41.43;99126.84;1823875;77;21115;-58
2021/03/20 12:10:19;;;;;;;12.20;4.28;;;;;;;8.32;40.82;99124.20;1827316;78;21141;-62
2021/03/20 12:12:56;;;;;;;8.90;4.00;;;;;;;8.32;40.83;99133.20;1824370;77;21110;-60
2021/03/20 12:15:38;;;;;;;8.83;4.58;;;;;;;8.15;41.16;99126.80;1823958;77;21122;-63
2021/03/20 12:18:17;;;;;;;7.75;4.55;;;;;;;7.74;41.37;99126.67;1815489;78;21160;-63
2021/03/20 12:20:45;;;;;;;6.87;4.35;;;;;;;7.27;41.71;99131.44;1814207;78;21107;-63
2021/03/20 12:23:21;;;;;;;8.63;4.58;;;;;;;7.01;42.26;99126.89;1818344;78;21154;-60
2021/03/20 12:25:56;;;;;;;7.65;4.28;;;;;;;6.87;42.81;99127.77;1824179;77;21194;-62
2021/03/20 12:28:33;;;;;;;9.25;4.78;;;;;;;6.71;43.77;99110.66;1827549;78;21703;-60
2021/03/20 12:31:23;;;;;;;7.70;4.08;;;;;;;6.45;44.48;99116.33;1827318;78;21124;-59